Time;durP1;ratioP1;P1;durP2;ratioP2;P2;SDS_P1;SDS_P2;PMS_P1;PMS_P2;Temp;Humidity;BMP_temperature;BMP_pressure;BME280_temperature;BME280_humidity;BME280_pressure;Samples;Min_cycle;Max_cycle;Signal;HPM_P1;HPM_P2
2021/09/06 00:01:31;;;;;;;;;20.75;18.25;;;;;25.01;49.55;101747.34;5036954;28;45342;-88
2021/09/06 00:03:56;;;;;;;;;17.75;16.50;;;;;25.01;49.47;101742.03;5036983;28;45361;-87
2021/09/06 00:06:22;;;;;;;;;18.75;16.50;;;;;24.97;48.60;101742.94;5036857;28;45257;-88
2021/09/06 00:08:48;;;;;;;;;17.50;14.75;;;;;24.92;49.25;101739.38;5036533;28;45515;-88
2021/09/06 00:11:13;;;;;;;;;20.25;17.75;;;;;24.93;49.24;101743.81;5042686;28;45264;-88
2021/09/06 00:13:40;;;;;;;;;18.25;16.75;;;;;24.93;49.67;101745.59;5049058;28;45274;-87
2021/09/06 00:16:06;;;;;;;;;15.75;15.75;;;;;24.93;48.77;101743.81;5038603;28;45444;-87
2021/09/06 00:18:32;;;;;;;;;17.50;16.50;;;;;24.92;48.73;101751.78;5016980;28;45363;-86
2021/09/06 00:21:01;;;;;;;;;17.25;16.75;;;;;24.89;49.01;101744.69;5015107;28;45328;-88
2021/09/06 00:23:27;;;;;;;;;20.00;18.00;;;;;24.85;49.34;101751.75;5016309;28;45378;-88
2021/09/06 00:25:54;;;;;;;;;20.25;16.00;;;;;24.83;48.87;101745.59;5016654;28;45357;-87
2021/09/06 00:28:20;;;;;;;;;21.50;18.25;;;;;24.81;49.37;101750.00;5016487;28;45376;-87
2021/09/06 00:30:46;;;;;;;;;15.25;14.50;;;;;24.80;49.90;101755.28;5016430;28;45850;-87
2021/09/06 00:33:12;;;;;;;;;14.00;14.00;;;;;24.78;49.58;101755.28;5016331;28;46287;-88
2021/09/06 00:35:38;;;;;;;;;16.75;16.75;;;;;24.73;49.10;101746.44;5016816;28;45369;-85
2021/09/06 00:38:04;;;;;;;;;18.00;16.50;;;;;24.72;48.91;101753.50;5016634;28;45294;-86
2021/09/06 00:40:30;;;;;;;;;19.25;17.25;;;;;24.69;48.93;101750.84;5023242;28;45796;-85
2021/09/06 00:42:56;;;;;;;;;17.00;17.00;;;;;24.68;49.04;101756.13;5025396;28;45336;-82
2021/09/06 00:45:22;;;;;;;;;17.75;17.75;;;;;24.66;49.44;101749.94;5023240;28;45431;-83
2021/09/06 00:47:47;;;;;;;;;18.00;17.25;;;;;24.64;49.57;101752.59;5017810;28;45782;-82
2021/09/06 00:50:15;;;;;;;;;22.00;19.00;;;;;24.62;49.73;101757.00;5015760;28;45452;-82
2021/09/06 00:52:46;;;;;;;;;19.75;17.75;;;;;24.62;49.32;101753.50;5015978;28;45426;-82
2021/09/06 00:55:14;;;;;;;;;17.25;14.50;;;;;24.60;49.09;101756.13;5017336;28;45407;-83
2021/09/06 00:57:40;;;;;;;;;16.00;14.50;;;;;24.56;49.49;101764.94;5020011;28;45354;-81
2021/09/06 01:00:08;;;;;;;;;17.25;15.75;;;;;24.54;49.68;101758.75;5019930;28;45785;-82
2021/09/06 01:02:34;;;;;;;;;18.75;15.75;;;;;24.50;49.36;101755.22;5019578;28;45414;-81
2021/09/06 01:05:00;;;;;;;;;21.25;17.25;;;;;24.50;49.70;101756.97;5020122;28;45406;-83
2021/09/06 01:07:26;;;;;;;;;20.00;18.00;;;;;24.50;50.04;101760.53;5029006;28;46525;-86
2021/09/06 01:09:51;;;;;;;;;20.25;17.75;;;;;24.49;49.54;101756.09;5027453;28;45331;-88
2021/09/06 01:12:17;;;;;;;;;18.75;14.50;;;;;24.46;49.24;101761.38;5032168;28;45244;-87
2021/09/06 01:14:43;;;;;;;;;18.25;17.00;;;;;24.41;49.75;101756.09;5027304;28;45234;-88
2021/09/06 01:17:08;;;;;;;;;20.00;18.25;;;;;24.41;49.39;101756.09;5039032;28;46234;-88
2021/09/06 01:19:35;;;;;;;;;15.50;15.50;;;;;24.37;49.76;101751.66;5039628;28;45235;-88
2021/09/06 01:22:01;;;;;;;;;17.00;16.50;;;;;24.36;49.51;101744.59;5039607;28;45354;-87
2021/09/06 01:24:27;;;;;;;;;18.00;18.00;;;;;24.38;50.09;101747.25;5039543;28;45548;-87
2021/09/06 01:26:53;;;;;;;;;14.50;13.50;;;;;24.39;49.81;101755.19;5039178;28;45413;-87
2021/09/06 01:29:18;;;;;;;;;16.25;15.75;;;;;24.39;50.09;101756.97;5040755;28;45776;-87
2021/09/06 01:31:44;;;;;;;;;15.75;15.00;;;;;24.38;49.82;101747.25;5046374;28;45867;-88
2021/09/06 01:34:11;;;;;;;;;15.00;13.50;;;;;24.38;49.82;101750.78;5058926;28;45358;-82
2021/09/06 01:36:37;;;;;;;;;17.50;17.25;;;;;24.36;49.62;101746.38;5052514;28;45496;-86
2021/09/06 01:39:04;;;;;;;;;18.75;17.50;;;;;24.36;49.93;101756.94;5044323;28;45655;-88
2021/09/06 01:41:30;;;;;;;;;15.50;14.75;;;;;24.35;50.02;101756.06;5039515;28;45481;-88
2021/09/06 01:43:56;;;;;;;;;18.50;18.50;;;;;24.33;50.28;101752.53;5040689;28;45579;-88
2021/09/06 01:46:26;;;;;;;;;14.25;11.50;;;;;24.33;50.07;101760.47;5039193;28;46044;-88
2021/09/06 01:48:54;;;;;;;;;16.75;15.75;;;;;24.31;50.36;101756.94;5042039;28;45258;-87
2021/09/06 01:51:20;;;;;;;;;19.00;16.00;;;;;24.31;50.47;101758.69;5039632;28;45286;-84
2021/09/06 01:53:45;;;;;;;;;21.50;19.25;;;;;24.27;50.62;101764.00;5035779;28;45494;-85
2021/09/06 01:56:11;;;;;;;;;17.00;16.25;;;;;24.27;49.96;101768.38;5018283;28;46026;-85
2021/09/06 01:58:38;;;;;;;;;15.50;15.25;;;;;24.24;50.56;101768.41;5022282;28;45429;-83
2021/09/06 02:01:03;;;;;;;;;18.25;16.00;;;;;24.22;50.22;101764.84;5026948;28;45426;-86
2021/09/06 02:03:29;;;;;;;;;20.50;18.00;;;;;24.22;50.46;101765.72;5027251;28;45418;-84
2021/09/06 02:05:54;;;;;;;;;16.00;16.00;;;;;24.21;49.86;101771.03;5022015;28;46386;-88
2021/09/06 02:08:20;;;;;;;;;16.25;16.25;;;;;24.22;50.30;101770.16;5017235;28;45327;-87
2021/09/06 02:10:45;;;;;;;;;20.00;19.33;;;;;24.22;50.21;101764.84;5019214;28;45342;-83
2021/09/06 02:13:11;;;;;;;;;20.75;17.75;;;;;24.19;50.44;101767.50;5019861;28;45313;-82
2021/09/06 02:15:37;;;;;;;;;15.75;13.75;;;;;24.17;50.32;101766.59;5023849;28;45315;-86
2021/09/06 02:18:02;;;;;;;;;16.50;15.50;;;;;24.16;50.59;101760.44;5038906;28;45358;-86
2021/09/06 02:20:28;;;;;;;;;14.25;14.25;;;;;24.16;50.42;101760.44;5038718;28;45338;-86
2021/09/06 02:22:53;;;;;;;;;15.50;14.75;;;;;24.17;50.46;101764.84;5038767;28;45512;-85
2021/09/06 02:25:19;;;;;;;;;12.75;12.75;;;;;24.14;50.34;101764.81;5038244;28;45942;-86
2021/09/06 02:27:45;;;;;;;;;16.75;15.50;;;;;24.10;49.87;101765.69;5043242;28;45243;-83
2021/09/06 02:30:11;;;;;;;;;15.75;15.25;;;;;24.08;49.68;101770.09;5045768;28;45500;-81
2021/09/06 02:32:36;;;;;;;;;12.25;12.25;;;;;24.03;50.07;101778.00;5042806;28;45449;-85
2021/09/06 02:35:02;;;;;;;;;18.25;17.75;;;;;23.99;50.44;101770.03;5038192;28;45462;-81
2021/09/06 02:37:28;;;;;;;;;15.75;15.00;;;;;23.94;50.29;101773.53;5037662;28;45776;-81
2021/09/06 02:39:53;;;;;;;;;14.25;14.00;;;;;23.88;49.97;101769.97;5038084;28;45353;-82
2021/09/06 02:42:19;;;;;;;;;18.00;17.00;;;;;23.86;49.96;101775.28;5037988;28;45503;-82
2021/09/06 02:44:45;;;;;;;;;18.25;16.50;;;;;23.83;50.00;101777.91;5038214;28;45439;-84
2021/09/06 02:47:10;;;;;;;;;18.00;18.00;;;;;23.77;50.47;101776.09;5037566;28;45367;-86
2021/09/06 02:49:36;;;;;;;;;15.50;15.25;;;;;23.75;50.34;101775.19;5038155;28;45257;-86
2021/09/06 02:52:02;;;;;;;;;16.25;16.25;;;;;23.70;50.43;101774.31;5038097;28;45282;-86
2021/09/06 02:54:28;;;;;;;;;14.75;12.50;;;;;23.70;50.52;101778.69;5043890;28;45965;-86
2021/09/06 02:56:53;;;;;;;;;14.25;13.25;;;;;23.71;50.70;101778.69;5046236;28;45401;-84
2021/09/06 02:59:19;;;;;;;;;17.75;13.75;;;;;23.70;50.44;101781.34;5041981;28;45324;-82
2021/09/06 03:01:44;;;;;;;;;16.25;14.25;;;;;23.69;50.42;101776.91;5038350;28;45359;-83
2021/09/06 03:04:10;;;;;;;;;15.25;14.25;;;;;23.67;50.46;101786.59;5037294;28;46037;-84
2021/09/06 03:06:35;;;;;;;;;15.00;14.75;;;;;23.62;50.38;101776.91;5036567;28;45339;-84
2021/09/06 03:09:01;;;;;;;;;15.00;15.00;;;;;23.60;50.95;101777.75;5037848;28;45332;-83
2021/09/06 03:11:27;;;;;;;;;15.75;14.25;;;;;23.60;50.86;101768.06;5040082;28;46139;-83
2021/09/06 03:13:54;;;;;;;;;16.50;15.50;;;;;23.65;50.65;101778.66;5039830;28;45453;-82
2021/09/06 03:16:21;;;;;;;;;13.25;13.25;;;;;23.68;50.64;101781.34;5037982;28;46277;-88
2021/09/06 03:18:48;;;;;;;;;16.50;14.25;;;;;23.71;51.11;101780.47;5048874;28;45329;-88
2021/09/06 03:21:14;;;;;;;;;12.75;12.00;;;;;23.72;50.59;101776.94;5048353;28;44808;-88
2021/09/06 03:23:40;;;;;;;;;14.00;13.00;;;;;23.72;50.42;101777.81;5040981;28;45406;-83
2021/09/06 03:26:06;;;;;;;;;17.75;15.75;;;;;23.70;50.31;101774.31;5039742;28;45417;-82
2021/09/06 03:28:31;;;;;;;;;16.00;13.50;;;;;23.68;50.19;101776.06;5037557;28;45461;-84
2021/09/06 03:30:57;;;;;;;;;18.50;15.25;;;;;23.65;50.46;101774.25;5037972;28;45447;-83
2021/09/06 03:33:22;;;;;;;;;15.00;14.25;;;;;23.64;50.63;101777.81;5037305;28;45363;-82
2021/09/06 03:35:48;;;;;;;;;17.50;15.50;;;;;23.63;50.95;101778.66;5037102;28;45366;-81
2021/09/06 03:38:14;;;;;;;;;15.00;14.25;;;;;23.61;50.33;101774.22;5037670;28;45326;-81
2021/09/06 03:40:41;;;;;;;;;13.50;13.50;;;;;23.56;50.19;101775.97;5054831;28;45401;-84
2021/09/06 03:43:06;;;;;;;;;14.50;12.50;;;;;23.54;50.70;101775.06;5039220;28;46320;-82
2021/09/06 03:45:32;;;;;;;;;12.75;11.75;;;;;23.56;50.74;101773.34;5038530;28;45226;-81
2021/09/06 03:47:57;;;;;;;;;17.00;15.50;;;;;23.57;50.66;101775.97;5039488;28;45442;-81
2021/09/06 03:50:23;;;;;;;;;15.75;15.00;;;;;23.59;50.88;101778.66;5043590;28;45526;-81
2021/09/06 03:52:49;;;;;;;;;17.50;15.25;;;;;23.60;51.06;101776.00;5043414;28;45329;-86
2021/09/06 03:55:15;;;;;;;;;13.25;13.00;;;;;23.59;50.96;101781.28;5039668;28;45267;-81
2021/09/06 03:57:40;;;;;;;;;15.25;12.25;;;;;23.58;50.54;101772.47;5037449;28;45312;-83
2021/09/06 04:00:07;;;;;;;;;15.75;15.25;;;;;23.61;50.56;101777.78;5037937;28;45274;-84
2021/09/06 04:02:33;;;;;;;;;14.00;13.75;;;;;23.59;50.37;101776.88;5037339;28;46341;-82
2021/09/06 04:04:59;;;;;;;;;13.50;13.00;;;;;23.55;50.32;101767.13;5034256;28;45394;-82
2021/09/06 04:07:25;;;;;;;;;15.00;15.00;;;;;23.52;50.67;101771.53;5016832;28;45462;-85
2021/09/06 04:09:51;;;;;;;;;16.75;14.75;;;;;23.48;50.89;101765.34;5017065;28;45495;-81
2021/09/06 04:12:17;;;;;;;;;12.50;12.25;;;;;23.45;50.90;101776.78;5016440;28;45450;-81
2021/09/06 04:14:43;;;;;;;;;18.00;16.50;;;;;23.40;50.63;101772.34;5021587;28;45225;-81
2021/09/06 04:17:08;;;;;;;;;15.50;14.75;;;;;23.36;50.51;101771.44;5025394;28;45180;-81
2021/09/06 04:19:34;;;;;;;;;13.50;12.00;;;;;23.34;50.99;101770.53;5018665;28;45438;-81
2021/09/06 04:22:01;;;;;;;;;11.25;10.75;;;;;23.34;51.12;101773.19;5018519;28;45336;-84
2021/09/06 04:24:27;;;;;;;;;15.50;14.00;;;;;23.31;51.17;101771.41;5023431;28;45314;-92
2021/09/06 04:26:53;;;;;;;;;14.75;14.25;;;;;23.29;51.06;101772.25;5021803;28;45255;-92
2021/09/06 04:29:19;;;;;;;;;15.00;14.50;;;;;23.28;50.92;101773.13;5017321;28;45315;-88
2021/09/06 04:31:45;;;;;;;;;12.75;12.50;;;;;23.26;50.75;101775.78;5042149;28;45483;-94
2021/09/06 04:34:11;;;;;;;;;13.75;13.75;;;;;23.26;50.70;101783.69;5036121;28;45547;-92
2021/09/06 04:36:37;;;;;;;;;14.75;14.00;;;;;23.27;50.94;101781.97;5037962;28;45311;-89
2021/09/06 04:39:03;;;;;;;;;16.00;15.50;;;;;23.28;50.85;101794.25;5041493;28;45679;-82
2021/09/06 04:41:29;;;;;;;;;13.75;12.25;;;;;23.24;51.44;101800.41;5049527;28;45278;-89
2021/09/06 04:43:55;;;;;;;;;15.00;12.00;;;;;23.23;51.20;101796.00;5050815;28;45213;-91
2021/09/06 04:46:21;;;;;;;;;13.00;13.00;;;;;23.21;51.25;101808.31;5050725;28;45385;-87
2021/09/06 04:48:46;;;;;;;;;14.50;14.50;;;;;23.19;51.28;101805.66;5044367;28;45393;-93
2021/09/06 04:51:12;;;;;;;;;13.75;12.00;;;;;23.19;51.70;101806.53;5042958;28;45840;-91
2021/09/06 04:53:41;;;;;;;;;18.25;16.50;;;;;23.19;51.65;101818.88;5045176;28;45318;-92
2021/09/06 04:56:08;;;;;;;;;14.50;13.00;;;;;23.19;51.51;101814.47;5044091;28;45303;-81
2021/09/06 04:58:34;;;;;;;;;19.50;16.00;;;;;23.18;51.40;101814.44;5039969;28;45190;-82
2021/09/06 05:01:00;;;;;;;;;14.50;14.50;;;;;23.15;51.71;101809.09;5036770;28;46001;-81
2021/09/06 05:03:25;;;;;;;;;19.25;15.50;;;;;23.16;51.77;101818.81;5037157;28;45309;-81
2021/09/06 05:05:51;;;;;;;;;13.50;13.50;;;;;23.15;51.77;101817.94;5038372;28;45468;-81
2021/09/06 05:08:17;;;;;;;;;23.00;15.75;;;;;23.12;51.97;101820.53;5042099;28;45331;-91
2021/09/06 05:10:42;;;;;;;;;18.25;15.00;;;;;23.12;52.13;101819.63;5043572;28;45463;-90
2021/09/06 05:13:08;;;;;;;;;19.25;17.25;;;;;23.11;52.38;101815.25;5037110;28;45378;-89
2021/09/06 05:15:34;;;;;;;;;17.50;16.25;;;;;23.11;52.39;101823.19;5040977;28;44706;-90
2021/09/06 05:17:59;;;;;;;;;19.00;18.00;;;;;23.09;52.41;101822.28;5037722;28;45324;-91
2021/09/06 05:20:26;;;;;;;;;22.75;20.75;;;;;23.09;53.27;101827.56;5026177;28;45496;-90
2021/09/06 05:22:51;;;;;;;;;19.75;18.00;;;;;23.06;53.23;101828.38;5027562;28;46169;-89
2021/09/06 05:25:18;;;;;;;;;24.50;21.00;;;;;23.03;53.27;101829.25;5016928;28;45343;-88
2021/09/06 05:27:43;;;;;;;;;19.50;19.25;;;;;23.04;53.26;101835.44;5019561;28;45197;-90
2021/09/06 05:30:10;;;;;;;;;21.00;19.25;;;;;23.03;53.76;101836.31;5017832;28;45912;-88
2021/09/06 05:32:36;;;;;;;;;24.00;19.75;;;;;23.02;53.88;101847.75;5019284;28;45772;-85
2021/09/06 05:35:02;;;;;;;;;18.75;17.50;;;;;23.02;54.11;101848.63;5035104;28;45334;-90
2021/09/06 05:37:28;;;;;;;;;18.75;18.25;;;;;23.03;54.26;101854.81;5036276;28;45324;-87
2021/09/06 05:39:53;;;;;;;;;25.75;19.75;;;;;23.02;54.25;101861.81;5028678;28;45830;-87
2021/09/06 05:42:19;;;;;;;;;20.00;19.50;;;;;23.03;54.51;101868.88;5031817;28;45395;-85
2021/09/06 05:44:47;;;;;;;;;21.75;18.75;;;;;23.01;54.38;101870.63;5045669;28;46607;-81
2021/09/06 05:47:13;;;;;;;;;22.75;21.50;;;;;23.00;54.44;101870.59;5030275;28;45515;-82
2021/09/06 05:49:39;;;;;;;;;20.25;19.00;;;;;22.98;54.67;101870.59;5029014;28;45517;-81
2021/09/06 05:52:05;;;;;;;;;23.50;21.00;;;;;23.00;54.91;101873.25;5031673;28;45296;-82
2021/09/06 05:54:30;;;;;;;;;27.00;24.00;;;;;22.99;55.52;101876.75;5032431;28;45239;-81
2021/09/06 05:56:56;;;;;;;;;26.25;23.50;;;;;22.93;55.84;101879.34;5018710;28;45578;-81
2021/09/06 05:59:22;;;;;;;;;23.50;21.50;;;;;22.89;56.30;101883.72;5018545;28;45974;-85
2021/09/06 06:01:47;;;;;;;;;23.25;21.00;;;;;22.86;56.11;101883.69;5028956;28;45457;-87
2021/09/06 06:04:13;;;;;;;;;26.75;24.75;;;;;22.87;56.23;101880.16;5030968;28;45361;-84
2021/09/06 06:06:39;;;;;;;;;28.25;21.25;;;;;22.86;55.88;101892.47;5029546;28;45452;-88
2021/09/06 06:09:04;;;;;;;;;18.50;17.50;;;;;22.88;56.04;101890.72;5023696;28;45383;-84
2021/09/06 06:11:31;;;;;;;;;23.50;20.75;;;;;22.89;56.22;101889.00;5031512;28;45279;-86
2021/09/06 06:13:56;;;;;;;;;30.75;27.50;;;;;22.91;55.99;101896.94;5031120;28;45482;-84
2021/09/06 06:16:22;;;;;;;;;30.50;23.75;;;;;22.94;55.65;101889.03;5030505;28;45481;-81
2021/09/06 06:18:48;;;;;;;;;23.50;22.00;;;;;22.95;55.87;101893.44;5028538;28;45194;-82
2021/09/06 06:21:14;;;;;;;;;23.50;23.00;;;;;22.95;55.67;101889.06;5022930;28;45489;-81
2021/09/06 06:23:39;;;;;;;;;24.50;22.75;;;;;22.96;55.24;101892.56;5031502;28;45374;-87
2021/09/06 06:26:05;;;;;;;;;24.75;20.00;;;;;23.01;55.53;101906.72;5028208;28;45455;-86
2021/09/06 06:28:30;;;;;;;;;22.50;19.50;;;;;23.05;55.16;101900.63;5027801;28;46027;-88
2021/09/06 06:30:56;;;;;;;;;23.00;21.50;;;;;23.08;54.79;101903.25;5037714;28;46727;-82
2021/09/06 06:33:22;;;;;;;;;27.75;22.75;;;;;23.15;54.54;101906.84;5019189;28;45399;-83
2021/09/06 06:35:47;;;;;;;;;23.50;20.75;;;;;23.16;54.51;101906.84;5019161;28;45354;-82
2021/09/06 06:38:13;;;;;;;;;24.50;21.25;;;;;23.19;54.21;101900.78;5030629;28;46615;-84
2021/09/06 06:40:39;;;;;;;;;22.00;20.75;;;;;23.24;53.46;101914.91;5022912;28;45379;-85
2021/09/06 06:43:06;;;;;;;;;23.00;20.25;;;;;23.25;53.42;101910.53;5034780;28;45814;-83
2021/09/06 06:45:31;;;;;;;;;23.00;21.50;;;;;23.23;52.84;101913.13;5028276;28;45548;-85
2021/09/06 06:47:57;;;;;;;;;20.50;19.00;;;;;23.22;52.73;101911.34;5037317;28;45334;-84
2021/09/06 06:50:24;;;;;;;;;19.75;18.00;;;;;23.25;52.51;101914.03;5038789;28;45817;-83
2021/09/06 06:52:51;;;;;;;;;23.75;22.25;;;;;23.26;52.72;101907.00;5037161;28;45191;-83
2021/09/06 06:55:17;;;;;;;;;34.75;31.50;;;;;23.28;52.62;101905.25;5018698;28;45636;-82
2021/09/06 06:57:42;;;;;;;;;30.75;27.00;;;;;23.30;52.66;101907.06;5040562;28;45618;-85
2021/09/06 07:00:08;;;;;;;;;18.25;17.00;;;;;23.34;52.59;101911.47;5040928;28;45460;-84
2021/09/06 07:02:34;;;;;;;;;18.75;17.50;;;;;23.38;52.51;101915.03;5038993;28;45346;-84
2021/09/06 07:05:00;;;;;;;;;19.75;15.50;;;;;23.42;51.54;101910.69;5024634;28;45604;-85
2021/09/06 07:07:25;;;;;;;;;19.75;18.50;;;;;23.41;51.81;101915.06;5017506;28;46112;-84
2021/09/06 07:09:51;;;;;;;;;19.50;15.00;;;;;23.44;51.60;101912.47;5017888;28;45426;-84
2021/09/06 07:12:16;;;;;;;;;19.75;18.50;;;;;23.50;51.69;101915.13;5018448;28;45464;-84
2021/09/06 07:14:42;;;;;;;;;22.25;18.75;;;;;23.53;51.83;101919.59;5020170;28;45249;-84
2021/09/06 07:17:07;;;;;;;;;23.25;19.50;;;;;23.56;51.75;101922.25;5017081;28;45708;-84
2021/09/06 07:19:33;;;;;;;;;17.75;17.75;;;;;23.57;51.87;101923.13;5017665;28;45478;-85
2021/09/06 07:22:00;;;;;;;;;20.00;17.00;;;;;23.62;52.27;101927.59;5024524;28;45717;-85
2021/09/06 07:24:26;;;;;;;;;19.25;18.50;;;;;23.63;51.25;101923.19;5031723;28;45369;-85
2021/09/06 07:26:52;;;;;;;;;19.00;18.00;;;;;23.65;51.45;101927.59;5039550;28;45514;-85
2021/09/06 07:29:18;;;;;;;;;19.25;17.75;;;;;23.67;51.59;101929.38;5036938;28;45450;-84
2021/09/06 07:31:44;;;;;;;;;15.75;14.50;;;;;23.68;51.63;101923.22;5037589;28;45476;-84
2021/09/06 07:34:10;;;;;;;;;20.00;17.00;;;;;23.70;51.07;101932.06;5037681;28;45530;-84
2021/09/06 07:36:36;;;;;;;;;18.00;18.00;;;;;23.74;51.18;101940.00;5038384;28;45941;-85
2021/09/06 07:39:02;;;;;;;;;21.25;20.75;;;;;23.76;51.30;101933.00;5050019;28;45306;-85
2021/09/06 07:41:28;;;;;;;;;17.25;16.25;;;;;23.79;50.57;101937.41;5045786;28;45259;-84
2021/09/06 07:43:54;;;;;;;;;22.25;18.25;;;;;23.81;50.73;101947.13;5037190;28;45629;-84
2021/09/06 07:46:19;;;;;;;;;15.00;15.00;;;;;23.84;50.53;101938.34;5039565;28;46060;-85
2021/09/06 07:48:45;;;;;;;;;19.00;17.25;;;;;23.86;50.38;101947.19;5037960;28;45342;-84
2021/09/06 07:51:10;;;;;;;;;22.50;19.50;;;;;23.85;50.40;101942.75;5043050;28;45303;-84
2021/09/06 07:53:36;;;;;;;;;19.50;18.75;;;;;23.87;50.60;101948.06;5040826;28;45326;-85
2021/09/06 07:56:02;;;;;;;;;20.75;18.50;;;;;23.91;50.43;101945.44;5037172;28;45351;-84
2021/09/06 07:58:27;;;;;;;;;19.75;17.50;;;;;23.92;50.58;101952.50;5036463;28;45416;-84
2021/09/06 08:00:53;;;;;;;;;20.25;18.00;;;;;23.97;50.21;101954.34;5037183;28;45444;-84
2021/09/06 08:03:19;;;;;;;;;21.00;18.75;;;;;23.99;50.25;101950.81;5037723;28;45389;-84
2021/09/06 08:05:44;;;;;;;;;21.25;17.25;;;;;24.03;50.43;101957.88;5036837;28;45457;-83
2021/09/06 08:08:11;;;;;;;;;21.25;18.00;;;;;24.06;50.21;101965.00;5036635;28;45398;-84
2021/09/06 08:10:37;;;;;;;;;17.75;17.25;;;;;24.08;50.05;101961.47;5036680;28;45333;-85
2021/09/06 08:13:02;;;;;;;;;20.50;19.50;;;;;24.12;49.72;101967.66;5035230;28;45319;-84
2021/09/06 08:15:28;;;;;;;;;20.75;20.75;;;;;24.13;49.68;101961.50;5036827;28;45857;-83
2021/09/06 08:17:55;;;;;;;;;23.50;17.25;;;;;24.15;49.83;101964.16;5041064;28;45720;-84
2021/09/06 08:20:21;;;;;;;;;17.00;15.25;;;;;24.18;50.28;101961.53;5044344;28;45487;-83
2021/09/06 08:22:47;;;;;;;;;16.50;16.50;;;;;24.19;49.64;101961.53;5041928;28;45326;-84
2021/09/06 08:25:14;;;;;;;;;16.25;15.75;;;;;24.23;50.19;101962.47;5037031;28;45645;-84
2021/09/06 08:27:40;;;;;;;;;20.75;18.75;;;;;24.26;49.55;101963.34;5036213;28;45864;-83
2021/09/06 08:30:08;;;;;;;;;21.00;19.25;;;;;24.30;49.86;101966.91;5036134;28;45358;-84
2021/09/06 08:32:34;;;;;;;;;21.00;21.00;;;;;24.33;50.02;101966.03;5036567;28;45655;-84
2021/09/06 08:34:59;;;;;;;;;21.00;19.00;;;;;24.36;49.63;101966.94;5044430;28;46000;-83
2021/09/06 08:37:25;;;;;;;;;17.50;17.50;;;;;24.39;49.01;101961.66;5037961;28;45319;-84
2021/09/06 08:39:51;;;;;;;;;19.50;16.00;;;;;24.42;49.44;101959.03;5036166;28;45235;-85
2021/09/06 08:42:18;;;;;;;;;20.50;18.00;;;;;24.46;49.35;101962.59;5036642;28;45483;-83
2021/09/06 08:44:45;;;;;;;;;16.50;16.00;;;;;24.48;48.94;101960.84;5041043;28;45516;-85
2021/09/06 08:47:12;;;;;;;;;17.75;17.00;;;;;24.51;48.50;101959.97;5042529;28;45670;-84
2021/09/06 08:49:37;;;;;;;;;20.00;16.50;;;;;24.54;49.40;101958.19;5040280;28;45168;-84
2021/09/06 08:52:03;;;;;;;;;20.75;20.25;;;;;24.58;48.45;101964.38;5035566;28;45619;-84
2021/09/06 08:54:29;;;;;;;;;21.25;17.25;;;;;24.60;48.33;101960.00;5036399;28;45371;-84
2021/09/06 08:56:54;;;;;;;;;18.00;16.00;;;;;24.64;48.56;101968.84;5035538;28;45276;-85
2021/09/06 08:59:20;;;;;;;;;19.50;16.00;;;;;24.66;47.76;101965.34;5035970;28;45186;-85
2021/09/06 09:01:50;;;;;;;;;18.75;17.00;;;;;24.69;48.16;101967.13;5035022;28;45345;-86
2021/09/06 09:04:27;;;;;;;;;17.50;16.25;;;;;24.72;48.35;101964.50;5035952;28;46030;-85
2021/09/06 09:06:57;;;;;;;;;19.75;19.75;;;;;24.74;48.14;101970.69;5035633;28;45679;-85
2021/09/06 09:09:27;;;;;;;;;18.00;17.00;;;;;24.77;47.79;101965.41;5034475;28;45408;-85
2021/09/06 09:12:03;;;;;;;;;17.50;16.75;;;;;24.80;48.33;101962.78;5041005;28;45445;-86
2021/09/06 09:14:30;;;;;;;;;24.25;18.75;;;;;24.82;47.87;101962.78;5043634;28;46757;-84
2021/09/06 09:16:57;;;;;;;;;20.50;17.25;;;;;24.85;47.86;101965.44;5040682;28;45684;-85
2021/09/06 09:19:23;;;;;;;;;14.75;14.25;;;;;24.85;47.94;101966.31;5039942;28;45410;-84
2021/09/06 09:21:56;;;;;;;;;20.25;18.00;;;;;24.86;47.82;101964.56;5039886;28;45527;-85
2021/09/06 09:24:23;;;;;;;;;20.25;18.25;;;;;24.87;47.65;101956.59;5039079;28;45380;-84
2021/09/06 09:26:56;;;;;;;;;21.75;15.50;;;;;24.91;47.91;101953.97;5044443;28;45319;-83
2021/09/06 09:29:22;;;;;;;;;19.00;15.50;;;;;24.93;47.04;101953.09;5043750;28;45955;-83
2021/09/06 09:31:49;;;;;;;;;21.50;18.00;;;;;24.97;47.22;101961.94;5039316;28;45558;-82
2021/09/06 09:34:15;;;;;;;;;17.75;16.00;;;;;25.01;47.29;101961.06;5037224;28;47730;-85
2021/09/06 09:36:42;;;;;;;;;22.75;18.75;;;;;25.03;47.15;101962.84;5038600;28;45351;-83
2021/09/06 09:39:18;;;;;;;;;17.50;17.25;;;;;25.07;46.78;101960.22;5043044;28;45448;-83
2021/09/06 09:41:46;;;;;;;;;19.50;19.00;;;;;25.09;46.41;101963.75;5044957;28;45337;-83
2021/09/06 09:44:20;;;;;;;;;18.75;18.75;;;;;25.13;46.61;101965.50;5056730;28;47603;-83
2021/09/06 09:46:57;;;;;;;;;17.50;15.25;;;;;25.16;46.25;101966.41;5038780;28;45246;-83
2021/09/06 09:49:23;;;;;;;;;19.75;18.00;;;;;25.18;45.77;101962.00;5038601;28;45405;-84
2021/09/06 09:51:50;;;;;;;;;20.00;17.75;;;;;25.21;45.82;101966.44;5038830;28;45685;-83
2021/09/06 09:54:16;;;;;;;;;18.00;18.00;;;;;25.26;46.14;101961.16;5038727;28;45648;-83
2021/09/06 09:56:43;;;;;;;;;19.75;18.25;;;;;25.28;45.81;101954.97;5038569;28;45371;-83
2021/09/06 09:59:13;;;;;;;;;22.50;20.75;;;;;25.32;46.22;101959.34;5044353;28;45402;-84
2021/09/06 10:01:43;;;;;;;;;21.25;18.25;;;;;25.35;46.41;101959.38;5046698;28;45437;-83
2021/09/06 10:04:11;;;;;;;;;19.25;16.50;;;;;25.39;44.80;101962.03;5038372;28;46511;-84
2021/09/06 10:06:38;;;;;;;;;15.00;14.25;;;;;25.41;44.86;101952.34;5045110;28;45388;-85
2021/09/06 10:09:06;;;;;;;;;18.25;18.25;;;;;25.44;45.63;101960.28;5042315;28;45388;-83
2021/09/06 10:11:40;;;;;;;;;16.25;16.25;;;;;25.47;45.45;101963.88;5039817;28;45508;-84
2021/09/06 10:14:13;;;;;;;;;16.50;16.50;;;;;25.52;44.88;101963.88;5038117;28;46024;-84
2021/09/06 10:16:40;;;;;;;;;16.00;16.00;;;;;25.55;45.31;101963.84;5037828;28;45380;-85
2021/09/06 10:19:07;;;;;;;;;17.00;15.25;;;;;25.57;45.13;101963.88;5038372;28;45413;-85
2021/09/06 10:21:46;;;;;;;;;15.25;15.25;;;;;25.61;44.75;101961.22;5039017;28;45327;-85
2021/09/06 10:24:14;;;;;;;;;15.25;14.25;;;;;25.63;44.84;101954.16;5039181;28;45408;-85
2021/09/06 10:26:40;;;;;;;;;16.75;16.75;;;;;25.67;44.69;101954.13;5037998;28;45749;-86
2021/09/06 10:29:20;;;;;;;;;18.50;16.25;;;;;25.72;45.03;101955.03;5037823;28;45467;-85
2021/09/06 10:32:03;;;;;;;;;14.75;13.50;;;;;25.73;44.60;101946.19;5041974;28;45225;-85
2021/09/06 10:34:29;;;;;;;;;19.75;19.25;;;;;25.74;44.65;101946.16;5042812;28;46467;-84
2021/09/06 10:37:01;;;;;;;;;15.75;15.75;;;;;25.79;44.35;101943.50;5056571;28;45261;-84
2021/09/06 10:39:27;;;;;;;;;13.25;13.25;;;;;25.81;45.05;101944.41;5040115;28;45291;-84
2021/09/06 10:41:53;;;;;;;;;14.50;14.50;;;;;25.84;43.80;101944.41;5038230;28;45509;-84
2021/09/06 10:44:19;;;;;;;;;15.25;13.50;;;;;25.89;44.53;101939.97;5038013;28;46488;-84
2021/09/06 10:46:53;;;;;;;;;18.25;16.00;;;;;25.95;43.85;101941.72;5038447;28;45637;-86
2021/09/06 10:49:23;;;;;;;;;13.00;9.50;;;;;26.01;43.75;101940.84;5039797;28;45358;-85
2021/09/06 10:51:49;;;;;;;;;13.50;12.50;;;;;26.03;43.74;101934.63;5039072;28;45565;-83
2021/09/06 10:54:15;;;;;;;;;16.75;15.00;;;;;26.09;43.40;101931.09;5038217;28;45255;-84
2021/09/06 10:56:40;;;;;;;;;13.00;13.00;;;;;26.16;43.57;101937.31;5038013;28;45418;-83
2021/09/06 10:59:06;;;;;;;;;15.25;14.75;;;;;26.18;43.69;101923.16;5039955;28;45505;-84
2021/09/06 11:01:32;;;;;;;;;15.00;14.75;;;;;26.23;43.29;101924.00;5060833;28;45406;-83
2021/09/06 11:03:58;;;;;;;;;12.25;12.25;;;;;26.25;43.22;101916.94;5041943;28;45428;-84
2021/09/06 11:06:25;;;;;;;;;12.75;11.75;;;;;26.27;43.89;101925.78;5038475;28;45783;-85